Accueil
METAR-TAF:

METAR-TAF

Aéroports :

Ağrı, Turquie

latitude: 39-39-16N, longitude: 43-01-38E, altitude: 1665 m

Observation

Le bulletin a été fait il y a 6 heures et 42 minutes, à 14:50 UTC
Vent 2 kt de direction variable
Température -13°C
Humidité 85%
Pression 1023 hPa
Visibilité: 1100 m
Quelques nuages à une hauteur de 300 ft
Nuages fragmentés à une hauteur de 2000 ft
bancs de brouillard

METAR: LTCO 201450Z VRB02KT 1100 R16/P1500U R34/P1500D BCFG FEW003 BKN020 M13/M15 Q1023

Heure: 00:32 (21:32 UTC)

Prévision

Le bulletin a été fait il y a 7 heures et 52 minutes, à 13:40 UTC
Prévision valable du 20 à 15 UTC au 20 à 24 UTC
Vent 2 kt de direction variable
Visibilité: 1600 m
Nuages fragmentés à une hauteur de 2000 ft
brume

TAF: LTCO 201340Z 2015/2024 VRB02KT 1600 BR BKN020

Observations et prévisions météorologiques de plus de 4000 aéroports (messages METAR et TAF).

Les stations disponibles sont représentées par des disques jaunes et rouges sur la carte.

Passer la souris dessus pour voir le nom de la station.

Cliquer dessus pour voir les observations et prévisions météorologiques.

Pour changer de carte: cliquez sur les boutons verts avec une croix noire pour zoomer, sur le bouton vert avec un tiret pour effectuer un zoom arrière, ou sur les flèches vertes pour les cartes adjacentes.


METAR-TAF: